createdAt,value
2018-12-16T02:50:27.783Z,14.68
2018-12-16T02:55:38.759Z,15.55
2018-12-16T03:01:12.445Z,14.83
2018-12-16T03:06:23.888Z,15.23
2018-12-16T03:11:34.928Z,14.65
2018-12-16T03:16:45.662Z,15.95
2018-12-16T03:21:57.361Z,15.85
2018-12-16T03:27:08.590Z,15.75
2018-12-16T03:32:19.875Z,15.20
2018-12-16T03:37:30.990Z,15.45
2018-12-16T03:51:38.319Z,15.30
2018-12-16T03:56:49.041Z,15.95
2018-12-16T04:02:01.693Z,15.30
2018-12-16T04:07:12.608Z,16.25
2018-12-16T04:12:23.492Z,16.05
2018-12-16T04:17:34.906Z,15.58
2018-12-16T04:22:46.460Z,15.25
2018-12-16T04:27:57.817Z,14.90
2018-12-16T04:37:59.284Z,14.78
2018-12-16T04:43:09.907Z,15.32
2018-12-16T04:48:21.675Z,14.73
2018-12-16T04:53:36.863Z,14.43
2018-12-16T04:58:45.897Z,13.93
2018-12-16T05:03:56.782Z,14.00
2018-12-16T05:09:09.883Z,13.43
2018-12-16T05:14:20.918Z,13.75
2018-12-16T05:19:33.219Z,12.58
2018-12-16T05:24:44.524Z,13.10
2018-12-16T05:29:57.278Z,13.03
2018-12-16T05:35:08.341Z,13.03
2018-12-16T05:40:19.885Z,13.03
2018-12-16T05:45:30.538Z,13.40
2018-12-16T05:50:41.786Z,12.30
2018-12-16T05:55:52.737Z,12.70
2018-12-16T06:01:03.634Z,12.45
2018-12-16T06:06:14.586Z,11.20
2018-12-16T06:11:27.481Z,10.38
2018-12-16T06:16:38.516Z,9.33
2018-12-16T06:21:49.845Z,9.07
2018-12-16T06:27:00.846Z,8.00
2018-12-16T06:37:23.508Z,8.23
2018-12-16T06:42:34.712Z,8.33
2018-12-16T06:52:57.605Z,9.20
2018-12-16T06:55:28.468Z,9.63
2018-12-16T07:00:39.983Z,9.08
2018-12-16T07:11:01.632Z,9.53
2018-12-16T07:16:12.977Z,10.15
2018-12-16T07:21:23.835Z,10.50
2018-12-16T07:26:34.887Z,10.70
2018-12-16T07:31:45.996Z,10.90
2018-12-16T07:36:56.686Z,10.30
2018-12-16T07:42:07.597Z,10.75
2018-12-16T07:47:18.639Z,10.25
2018-12-16T07:52:29.608Z,10.50
2018-12-16T07:57:40.807Z,9.75
2018-12-16T08:02:53.481Z,9.80
2018-12-16T08:08:05.569Z,9.43
2018-12-16T08:13:16.803Z,9.10
2018-12-16T08:18:27.644Z,8.60
2018-12-16T08:23:39.906Z,8.95
2018-12-16T08:28:51.452Z,9.88
2018-12-16T08:34:01.588Z,9.28
2018-12-16T08:39:14.655Z,9.28
2018-12-16T08:44:25.620Z,9.65
2018-12-16T08:49:36.897Z,9.48
2018-12-16T08:54:48.590Z,9.93
2018-12-16T09:00:00.896Z,9.08
2018-12-16T09:05:12.199Z,10.40
2018-12-16T09:10:23.408Z,10.37
2018-12-16T09:25:55.896Z,10.80
2018-12-16T09:31:08.620Z,10.60
2018-12-16T09:36:19.689Z,10.72
2018-12-16T09:41:34.730Z,10.53
2018-12-16T09:52:05.226Z,11.08
2018-12-16T09:57:16.227Z,11.65
2018-12-16T10:02:27.374Z,11.80
2018-12-16T10:07:40.616Z,11.12
2018-12-16T10:12:53.301Z,11.48
2018-12-16T10:18:06.992Z,11.80
2018-12-16T10:23:46.320Z,11.70
2018-12-16T10:28:57.917Z,11.55
2018-12-16T10:35:39.655Z,10.50
2018-12-16T10:40:50.814Z,10.93
2018-12-16T10:46:02.095Z,10.88
2018-12-16T10:57:06.643Z,11.25
2018-12-16T11:02:19.887Z,11.03
2018-12-16T11:07:32.654Z,11.93
2018-12-16T11:12:46.736Z,11.57
2018-12-16T11:17:57.896Z,11.15
2018-12-16T11:23:10.602Z,11.22
2018-12-16T11:28:29.668Z,11.48
2018-12-16T11:33:41.701Z,11.43
2018-12-16T11:38:52.811Z,11.63
2018-12-16T11:44:07.645Z,11.30
2018-12-16T11:49:18.923Z,11.78
2018-12-16T11:54:47.316Z,11.18
2018-12-16T12:00:00.324Z,11.55
2018-12-16T12:05:13.014Z,11.38
2018-12-16T12:10:27.772Z,11.15
2018-12-16T12:15:40.530Z,10.50
2018-12-16T12:20:54.609Z,11.08
2018-12-16T12:26:05.732Z,11.05
2018-12-16T12:37:09.670Z,11.22
2018-12-16T12:42:21.227Z,11.22
2018-12-16T12:47:32.640Z,10.95
2018-12-16T12:52:47.813Z,10.48
2018-12-16T12:57:59.630Z,10.50
2018-12-16T13:03:11.464Z,10.40
2018-12-16T13:08:22.839Z,10.58
2018-12-16T13:18:44.568Z,9.13
2018-12-16T13:23:55.844Z,8.28
2018-12-16T13:29:06.592Z,7.33
2018-12-16T13:34:16.909Z,7.27
2018-12-16T13:44:42.597Z,7.10
2018-12-16T13:49:56.793Z,7.37
2018-12-16T13:55:08.640Z,7.90
2018-12-16T14:05:36.678Z,8.35
2018-12-16T14:11:34.115Z,8.98
2018-12-16T14:16:45.638Z,9.05
2018-12-16T14:22:29.875Z,8.90
2018-12-16T14:32:55.061Z,9.55
2018-12-16T14:38:17.201Z,9.03
2018-12-16T14:48:54.223Z,8.90
2018-12-16T14:54:12.641Z,8.55
2018-12-16T14:59:24.222Z,9.00
2018-12-16T15:04:36.056Z,8.90
2018-12-16T15:09:46.978Z,8.43
2018-12-16T15:14:57.764Z,8.28
2018-12-16T15:20:21.652Z,7.53
2018-12-16T15:25:34.357Z,8.18
2018-12-16T15:36:02.856Z,7.60
2018-12-16T15:41:13.784Z,8.00
2018-12-16T15:52:59.735Z,8.63
2018-12-16T15:58:11.305Z,8.73
2018-12-16T16:03:24.263Z,8.50
2018-12-16T16:13:48.717Z,8.88
2018-12-16T16:18:59.835Z,8.13
2018-12-16T16:24:14.994Z,7.90
2018-12-16T16:29:25.619Z,8.78
2018-12-16T16:34:36.994Z,8.15
2018-12-16T16:39:47.802Z,7.40
2018-12-16T16:44:58.732Z,6.95
2018-12-16T16:50:09.622Z,7.00
2018-12-16T16:55:20.793Z,6.72
2018-12-16T17:00:31.683Z,7.58
2018-12-16T17:05:43.037Z,7.78
2018-12-16T17:10:54.634Z,8.15
2018-12-16T17:16:09.302Z,7.90
2018-12-16T17:21:39.672Z,8.43
2018-12-16T17:26:50.773Z,8.33
2018-12-16T17:36:41.662Z,7.92
2018-12-16T17:41:52.998Z,8.68
2018-12-16T17:47:03.703Z,8.43
2018-12-16T17:58:16.865Z,7.55
2018-12-16T18:03:34.699Z,6.78
2018-12-16T18:08:46.809Z,6.90
2018-12-16T18:14:00.222Z,6.78
2018-12-16T18:24:22.245Z,7.25
2018-12-16T18:29:33.652Z,8.15
2018-12-16T18:34:44.893Z,8.50
2018-12-16T18:39:57.367Z,7.45
2018-12-16T18:45:09.834Z,7.28
2018-12-16T18:50:28.482Z,8.08
2018-12-16T18:55:40.606Z,7.90
2018-12-16T19:00:58.312Z,8.00
2018-12-16T19:06:09.850Z,8.18
2018-12-16T19:11:21.645Z,8.15
2018-12-16T19:16:32.696Z,8.05
2018-12-16T19:27:37.949Z,6.90
2018-12-16T19:32:56.617Z,7.17
2018-12-16T19:38:07.891Z,6.92
2018-12-16T19:43:24.639Z,7.22
2018-12-16T19:48:36.316Z,7.37
2018-12-16T19:53:46.816Z,7.10
2018-12-16T19:58:58.243Z,7.75
2018-12-16T20:04:49.284Z,7.90
2018-12-16T20:10:00.785Z,8.15
2018-12-16T20:15:11.794Z,8.00
2018-12-16T20:20:26.871Z,7.83
2018-12-16T20:25:37.734Z,7.90
2018-12-16T20:30:53.332Z,7.72
2018-12-16T20:36:04.796Z,7.58
2018-12-16T20:41:15.615Z,7.92
2018-12-16T20:46:27.690Z,7.90
2018-12-16T20:51:39.698Z,7.22
2018-12-16T20:56:50.708Z,7.60
2018-12-16T21:02:05.759Z,7.83
2018-12-16T21:07:17.234Z,7.50
2018-12-16T21:12:33.565Z,7.97
2018-12-16T21:18:03.370Z,7.87
2018-12-16T21:23:37.642Z,8.00
2018-12-16T21:28:48.815Z,7.75
2018-12-16T21:34:12.712Z,8.15
2018-12-16T21:39:24.374Z,7.33
2018-12-16T21:44:36.975Z,7.67
2018-12-16T21:49:47.701Z,7.42
2018-12-16T21:54:58.647Z,7.90
2018-12-16T22:00:17.177Z,7.83
2018-12-16T22:05:32.939Z,7.95
2018-12-16T22:11:02.754Z,8.10
2018-12-16T22:16:14.410Z,7.50
2018-12-16T22:21:47.237Z,7.20
2018-12-16T22:26:58.828Z,7.62
2018-12-16T22:32:33.794Z,7.47
2018-12-16T22:37:44.971Z,7.67
2018-12-16T22:42:55.943Z,7.35
2018-12-16T22:48:06.847Z,7.12
2018-12-16T22:53:43.914Z,7.12
2018-12-16T22:58:55.860Z,7.45
2018-12-16T23:04:30.703Z,6.95
2018-12-16T23:09:42.252Z,7.17
2018-12-16T23:14:53.597Z,7.25
2018-12-16T23:20:10.199Z,6.87
2018-12-16T23:25:21.214Z,7.58
2018-12-16T23:30:34.566Z,7.22
2018-12-16T23:35:45.591Z,7.40
2018-12-16T23:41:06.287Z,6.90
2018-12-16T23:46:17.606Z,6.67
2018-12-16T23:57:22.648Z,7.25
